createdAt,value
2023-04-25T00:00:45.250Z,99639.19
2023-04-25T00:01:47.703Z,99641.41
2023-04-25T00:02:49.539Z,99644.50
2023-04-25T00:03:52.591Z,99643.44
2023-04-25T00:04:55.734Z,99641.94
2023-04-25T00:05:58.956Z,99643.03
2023-04-25T00:07:02.551Z,99635.78
2023-04-25T00:08:05.804Z,99637.53
2023-04-25T00:09:09.988Z,99641.00
2023-04-25T00:10:12.903Z,99634.81
2023-04-25T00:11:14.420Z,99647.00
2023-04-25T00:12:17.973Z,99635.31
2023-04-25T00:13:20.311Z,99638.50
2023-04-25T00:14:23.843Z,99649.41
2023-04-25T00:15:25.352Z,99636.69
2023-04-25T00:16:28.050Z,99647.84
2023-04-25T00:17:29.894Z,99634.75
2023-04-25T00:18:34.260Z,99642.34
2023-04-25T00:19:36.069Z,99642.00
2023-04-25T00:20:38.607Z,99645.97
2023-04-25T00:21:41.429Z,99642.72
2023-04-25T00:22:45.356Z,99650.44
2023-04-25T00:23:47.318Z,99652.06
2023-04-25T00:24:49.869Z,99660.25
2023-04-25T00:25:51.901Z,99654.25
2023-04-25T00:26:54.427Z,99655.81
2023-04-25T00:27:56.002Z,99650.00
2023-04-25T00:28:58.432Z,99661.16
2023-04-25T00:29:59.924Z,99664.00
2023-04-25T00:31:02.404Z,99667.56
2023-04-25T00:32:04.258Z,99664.59
2023-04-25T00:33:06.789Z,99669.47
2023-04-25T00:34:09.140Z,99669.50
2023-04-25T00:35:11.775Z,99666.50
2023-04-25T00:36:13.589Z,99665.97
2023-04-25T00:37:16.166Z,99670.28
2023-04-25T00:38:19.176Z,99669.44
2023-04-25T00:39:21.628Z,99670.25
2023-04-25T00:40:23.268Z,99669.47
2023-04-25T00:41:27.785Z,99666.50
2023-04-25T00:42:30.805Z,99672.19
2023-04-25T00:43:34.829Z,99671.94
2023-04-25T00:44:36.620Z,99672.19
2023-04-25T00:45:41.055Z,99672.19
2023-04-25T00:46:43.375Z,99670.28
2023-04-25T00:47:46.326Z,99668.41
2023-04-25T00:48:47.924Z,99668.16
2023-04-25T00:49:50.412Z,99666.22
2023-04-25T00:50:53.779Z,99670.03
2023-04-25T00:51:57.008Z,99669.97
2023-04-25T00:52:58.581Z,99668.88
2023-04-25T00:54:03.564Z,99669.63
2023-04-25T00:55:06.192Z,99663.09
2023-04-25T00:56:08.756Z,99668.25
2023-04-25T00:57:11.617Z,99669.28
2023-04-25T00:58:14.140Z,99664.34
2023-04-25T00:59:16.263Z,99664.16
2023-04-25T01:00:22.498Z,99663.88
2023-04-25T01:01:24.141Z,99671.09
2023-04-25T01:02:28.042Z,99667.63
2023-04-25T01:03:32.032Z,99667.59
2023-04-25T01:04:34.805Z,99667.31
2023-04-25T01:05:36.504Z,99664.53
2023-04-25T01:06:39.303Z,99660.84
2023-04-25T01:07:41.642Z,99660.00
2023-04-25T01:08:44.507Z,99662.19
2023-04-25T01:09:47.547Z,99664.06
2023-04-25T01:10:49.982Z,99659.44
2023-04-25T01:11:51.719Z,99665.13
2023-04-25T01:12:54.245Z,99656.66
2023-04-25T01:13:55.732Z,99661.19
2023-04-25T01:14:58.275Z,99659.81
2023-04-25T01:16:00.370Z,99659.00
2023-04-25T01:17:03.711Z,99664.00
2023-04-25T01:18:06.487Z,99662.88
2023-04-25T01:19:12.920Z,99653.59
2023-04-25T01:20:15.272Z,99651.94
2023-04-25T01:21:19.246Z,99656.81
2023-04-25T01:22:21.753Z,99665.56
2023-04-25T01:23:24.826Z,99659.81
2023-04-25T01:24:26.924Z,99656.22
2023-04-25T01:25:29.924Z,99655.63
2023-04-25T01:26:31.830Z,99655.19
2023-04-25T01:27:34.682Z,99659.25
2023-04-25T01:28:36.258Z,99665.41
2023-04-25T01:29:39.053Z,99655.13
2023-04-25T01:30:41.589Z,99664.09
2023-04-25T01:31:45.045Z,99658.88
2023-04-25T01:32:47.491Z,99656.16
2023-04-25T01:33:50.718Z,99662.09
2023-04-25T01:34:52.385Z,99660.47
2023-04-25T01:35:54.862Z,99663.50
2023-04-25T01:36:59.972Z,99664.41
2023-04-25T01:38:02.722Z,99664.41
2023-04-25T01:39:04.559Z,99664.25
2023-04-25T01:40:09.461Z,99660.28
2023-04-25T01:41:11.132Z,99663.25
2023-04-25T01:42:14.894Z,99664.06
2023-04-25T01:43:16.455Z,99666.19
2023-04-25T01:44:18.949Z,99662.28
2023-04-25T01:45:20.859Z,99662.50
2023-04-25T01:46:23.768Z,99665.16
2023-04-25T01:47:25.529Z,99670.53
2023-04-25T01:48:28.209Z,99667.00
2023-04-25T01:49:29.723Z,99658.16
2023-04-25T01:50:32.309Z,99665.06
2023-04-25T01:51:34.425Z,99666.91
2023-04-25T01:52:38.345Z,99673.66
2023-04-25T01:53:40.683Z,99663.34
2023-04-25T01:54:45.665Z,99665.72
2023-04-25T01:55:47.194Z,99664.59
2023-04-25T01:56:52.555Z,99666.91
2023-04-25T01:57:54.098Z,99663.88
2023-04-25T01:58:56.511Z,99668.19
2023-04-25T02:00:00.940Z,99665.91
2023-04-25T02:01:03.768Z,99663.44
2023-04-25T02:02:05.617Z,99664.50
2023-04-25T02:03:08.854Z,99669.38
2023-04-25T02:04:10.626Z,99671.56
2023-04-25T02:05:13.168Z,99667.06
2023-04-25T02:06:14.704Z,99661.63
2023-04-25T02:07:17.584Z,99664.81
2023-04-25T02:08:20.376Z,99668.06
2023-04-25T02:09:22.846Z,99663.16
2023-04-25T02:10:24.347Z,99664.22
2023-04-25T02:11:26.773Z,99661.53
2023-04-25T02:12:28.412Z,99662.09
2023-04-25T02:13:30.975Z,99667.38
2023-04-25T02:14:32.423Z,99671.16
2023-04-25T02:15:34.930Z,99658.84
2023-04-25T02:16:36.914Z,99659.16
2023-04-25T02:17:40.138Z,99659.38
2023-04-25T02:18:41.689Z,99662.97
2023-04-25T02:19:44.100Z,99662.16
2023-04-25T02:20:46.361Z,99661.34
2023-04-25T02:21:48.789Z,99659.94
2023-04-25T02:22:50.429Z,99658.13
2023-04-25T02:23:54.831Z,99664.56
2023-04-25T02:24:56.891Z,99663.00
2023-04-25T02:25:59.772Z,99657.13
2023-04-25T02:27:01.366Z,99662.16
2023-04-25T02:28:03.999Z,99657.78
2023-04-25T02:29:05.804Z,99658.94
2023-04-25T02:30:09.341Z,99659.13
2023-04-25T02:31:11.774Z,99659.78
2023-04-25T02:32:13.272Z,99658.38
2023-04-25T02:33:17.926Z,99661.00
2023-04-25T02:34:19.423Z,99660.41
2023-04-25T02:35:21.958Z,99653.63
2023-04-25T02:36:23.447Z,99665.00
2023-04-25T02:37:26.233Z,99653.94
2023-04-25T02:38:28.652Z,99662.03
2023-04-25T02:39:31.483Z,99658.91
2023-04-25T02:40:33.921Z,99657.41
2023-04-25T02:41:35.555Z,99664.38
2023-04-25T02:42:38.064Z,99656.16
2023-04-25T02:43:39.514Z,99663.97
2023-04-25T02:44:41.925Z,99654.09
2023-04-25T02:45:43.585Z,99656.50
2023-04-25T02:46:46.067Z,99648.72
2023-04-25T02:47:47.623Z,99656.56
2023-04-25T02:48:50.038Z,99657.84
2023-04-25T02:49:51.613Z,99659.03
2023-04-25T02:50:54.028Z,99661.84
2023-04-25T02:51:55.510Z,99653.09
2023-04-25T02:52:58.088Z,99650.50
2023-04-25T02:53:59.706Z,99652.94
2023-04-25T02:55:03.522Z,99656.19
2023-04-25T02:56:05.772Z,99655.91
2023-04-25T02:57:08.400Z,99649.69
2023-04-25T02:58:09.890Z,99651.88
2023-04-25T02:59:12.357Z,99659.47
2023-04-25T03:00:15.264Z,99650.53
2023-04-25T03:01:17.809Z,99651.91
2023-04-25T03:02:19.472Z,99643.75
2023-04-25T03:03:23.035Z,99656.50
2023-04-25T03:04:24.933Z,99645.69
2023-04-25T03:05:27.492Z,99647.03
2023-04-25T03:06:28.971Z,99656.47
2023-04-25T03:07:31.428Z,99647.50
2023-04-25T03:08:33.676Z,99651.78
2023-04-25T03:09:36.373Z,99640.63
2023-04-25T03:10:39.474Z,99649.88
2023-04-25T03:11:41.903Z,99641.56
2023-04-25T03:12:43.392Z,99642.38
2023-04-25T03:13:45.854Z,99651.31
2023-04-25T03:14:47.355Z,99653.38
2023-04-25T03:15:49.836Z,99649.66
2023-04-25T03:16:51.393Z,99647.63
2023-04-25T03:17:53.963Z,99643.75
2023-04-25T03:18:55.534Z,99644.34
2023-04-25T03:19:59.768Z,99646.06
2023-04-25T03:21:01.295Z,99640.38
2023-04-25T03:22:03.774Z,99643.88
2023-04-25T03:23:05.431Z,99642.84
2023-04-25T03:24:08.058Z,99635.25
2023-04-25T03:25:09.528Z,99639.56
2023-04-25T03:26:13.348Z,99634.47
2023-04-25T03:27:14.855Z,99640.47
2023-04-25T03:28:17.349Z,99637.97
2023-04-25T03:29:18.928Z,99641.56
2023-04-25T03:30:21.361Z,99638.09
2023-04-25T03:31:23.362Z,99638.78
2023-04-25T03:32:26.984Z,99636.22
2023-04-25T03:33:28.483Z,99637.78
2023-04-25T03:34:31.025Z,99649.41
2023-04-25T03:35:32.588Z,99637.88
2023-04-25T03:36:35.008Z,99645.28
2023-04-25T03:37:36.525Z,99631.00
2023-04-25T03:38:38.944Z,99640.22
2023-04-25T03:39:40.464Z,99637.69
2023-04-25T03:40:42.929Z,99632.75
2023-04-25T03:41:45.909Z,99639.72
2023-04-25T03:42:48.384Z,99636.00
2023-04-25T03:43:50.138Z,99638.97
2023-04-25T03:44:53.758Z,99639.03
2023-04-25T03:45:56.094Z,99635.53
2023-04-25T03:46:58.639Z,99626.50
2023-04-25T03:48:00.212Z,99637.53
2023-04-25T03:49:03.007Z,99635.72
2023-04-25T03:50:05.061Z,99635.22
2023-04-25T03:51:07.616Z,99638.16
2023-04-25T03:52:09.169Z,99636.31
2023-04-25T03:53:11.938Z,99633.66
2023-04-25T03:54:13.456Z,99628.19
2023-04-25T03:55:15.950Z,99635.13
2023-04-25T03:56:17.431Z,99635.66
2023-04-25T03:57:21.276Z,99637.81
2023-04-25T03:58:24.119Z,99633.31
2023-04-25T03:59:27.051Z,99637.78
2023-04-25T04:00:28.594Z,99639.38
2023-04-25T04:01:31.002Z,99636.00
2023-04-25T04:02:34.163Z,99637.34
2023-04-25T04:03:36.317Z,99644.41
2023-04-25T04:04:39.058Z,99638.75
2023-04-25T04:05:41.743Z,99633.72
2023-04-25T04:06:44.256Z,99637.78
2023-04-25T04:07:45.952Z,99649.41
2023-04-25T04:08:48.446Z,99636.47
2023-04-25T04:09:49.944Z,99640.53
2023-04-25T04:10:52.377Z,99641.53
2023-04-25T04:11:53.894Z,99647.41
2023-04-25T04:12:57.812Z,99639.88
2023-04-25T04:13:59.260Z,99639.97
2023-04-25T04:15:01.718Z,99648.69
2023-04-25T04:16:05.298Z,99654.63
2023-04-25T04:17:07.926Z,99641.88
2023-04-25T04:18:09.470Z,99647.09
2023-04-25T04:19:11.998Z,99646.34
2023-04-25T04:20:13.566Z,99640.13
2023-04-25T04:21:16.230Z,99638.75
2023-04-25T04:22:17.824Z,99643.38
2023-04-25T04:23:21.425Z,99633.66
2023-04-25T04:24:23.106Z,99644.19
2023-04-25T04:25:25.884Z,99639.06
2023-04-25T04:26:27.680Z,99643.19
2023-04-25T04:27:30.310Z,99635.31
2023-04-25T04:28:33.178Z,99632.63
2023-04-25T04:29:35.999Z,99634.25
2023-04-25T04:30:38.548Z,99629.63
2023-04-25T04:31:41.506Z,99625.00
2023-04-25T04:32:43.128Z,99628.94
2023-04-25T04:33:45.774Z,99629.28
2023-04-25T04:34:48.420Z,99623.38
2023-04-25T04:35:53.323Z,99625.00
2023-04-25T04:36:54.912Z,99625.22
2023-04-25T04:37:57.435Z,99636.59
2023-04-25T04:38:58.914Z,99632.84
2023-04-25T04:40:02.252Z,99633.72
2023-04-25T04:41:04.259Z,99634.25
2023-04-25T04:42:06.920Z,99638.59
2023-04-25T04:43:10.116Z,99628.59
2023-04-25T04:44:15.095Z,99630.22
2023-04-25T04:45:17.217Z,99637.81
2023-04-25T04:46:19.785Z,99636.47
2023-04-25T04:47:21.357Z,99642.69
2023-04-25T04:48:23.898Z,99641.06
2023-04-25T04:49:25.457Z,99647.00
2023-04-25T04:50:28.587Z,99654.59
2023-04-25T04:51:31.101Z,99649.72
2023-04-25T04:52:33.637Z,99659.72
2023-04-25T04:53:35.463Z,99660.22
2023-04-25T04:54:38.180Z,99659.13
2023-04-25T04:55:39.891Z,99650.16
2023-04-25T04:56:42.849Z,99648.53
2023-04-25T04:57:44.410Z,99659.66
2023-04-25T04:58:46.956Z,99648.28
2023-04-25T04:59:51.004Z,99657.50
2023-04-25T05:00:53.500Z,99657.47
2023-04-25T05:01:55.224Z,99656.44
2023-04-25T05:02:58.036Z,99664.34
2023-04-25T05:04:02.012Z,99665.09
2023-04-25T05:05:05.335Z,99655.63
2023-04-25T05:06:07.240Z,99666.50
2023-04-25T05:07:09.705Z,99658.88
2023-04-25T05:08:11.318Z,99662.69
2023-04-25T05:09:13.730Z,99663.53
2023-04-25T05:10:15.277Z,99665.66
2023-04-25T05:11:17.702Z,99662.97
2023-04-25T05:12:19.177Z,99668.94
2023-04-25T05:13:21.694Z,99671.66
2023-04-25T05:14:24.292Z,99663.28
2023-04-25T05:15:28.146Z,99658.63
2023-04-25T05:16:29.683Z,99660.81
2023-04-25T05:17:32.187Z,99664.84
2023-04-25T05:18:33.729Z,99656.41
2023-04-25T05:19:36.446Z,99666.72
2023-04-25T05:20:38.041Z,99671.88
2023-04-25T05:21:40.613Z,99668.59
2023-04-25T05:22:42.697Z,99672.63
2023-04-25T05:23:45.257Z,99667.16
2023-04-25T05:24:46.854Z,99671.69
2023-04-25T05:25:49.349Z,99675.22
2023-04-25T05:26:50.907Z,99672.19
2023-04-25T05:27:53.545Z,99674.88
2023-04-25T05:28:55.237Z,99675.25
2023-04-25T05:29:57.700Z,99676.13
2023-04-25T05:31:01.180Z,99677.22
2023-04-25T05:32:03.773Z,99677.50
2023-04-25T05:33:05.530Z,99674.25
2023-04-25T05:34:08.266Z,99677.53
2023-04-25T05:35:10.022Z,99675.84
2023-04-25T05:36:12.672Z,99671.25
2023-04-25T05:37:14.194Z,99677.75
2023-04-25T05:38:16.703Z,99678.31
2023-04-25T05:39:18.612Z,99678.03
2023-04-25T05:40:21.281Z,99674.19
2023-04-25T05:41:22.791Z,99674.69
2023-04-25T05:42:25.233Z,99689.94
2023-04-25T05:43:26.715Z,99682.63
2023-04-25T05:44:29.844Z,99683.72
2023-04-25T05:45:31.476Z,99687.81
2023-04-25T05:46:35.594Z,99698.13
2023-04-25T05:47:37.138Z,99689.16
2023-04-25T05:48:39.810Z,99687.22
2023-04-25T05:49:41.367Z,99690.13
2023-04-25T05:50:44.774Z,99699.09
2023-04-25T05:51:46.328Z,99686.63
2023-04-25T05:52:48.871Z,99700.19
2023-04-25T05:53:50.802Z,99689.03
2023-04-25T05:54:53.451Z,99691.19
2023-04-25T05:55:55.401Z,99692.47
2023-04-25T05:56:58.413Z,99696.34
2023-04-25T05:57:59.904Z,99700.75
2023-04-25T05:59:02.358Z,99712.84
2023-04-25T06:00:05.107Z,99705.44
2023-04-25T06:01:07.646Z,99709.59
2023-04-25T06:02:10.559Z,99719.41
2023-04-25T06:03:17.849Z,99710.34
2023-04-25T06:04:21.616Z,99712.75
2023-04-25T06:05:24.710Z,99707.16
2023-04-25T06:06:27.835Z,99706.25
2023-04-25T06:07:30.857Z,99710.34
2023-04-25T06:08:32.778Z,99707.16
2023-04-25T06:09:35.740Z,99721.31
2023-04-25T06:10:37.567Z,99712.88
2023-04-25T06:11:40.089Z,99714.84
2023-04-25T06:12:41.687Z,99717.81
2023-04-25T06:13:44.167Z,99715.69
2023-04-25T06:14:45.806Z,99719.44
2023-04-25T06:15:48.293Z,99720.81
2023-04-25T06:16:49.855Z,99722.97
2023-04-25T06:17:53.869Z,99713.78
2023-04-25T06:18:56.342Z,99708.56
2023-04-25T06:19:57.861Z,99719.16
2023-04-25T06:21:00.389Z,99714.31
2023-04-25T06:22:02.277Z,99718.09
2023-04-25T06:23:04.700Z,99706.63
2023-04-25T06:24:07.605Z,99710.41
2023-04-25T06:25:09.740Z,99706.25
2023-04-25T06:26:12.246Z,99712.88
2023-04-25T06:27:15.785Z,99715.56
2023-04-25T06:28:39.698Z,99708.41
2023-04-25T06:30:02.309Z,99726.16
2023-04-25T06:31:25.097Z,99728.50
2023-04-25T06:32:47.728Z,99733.47
2023-04-25T06:34:11.641Z,99735.28
2023-04-25T06:35:33.360Z,99727.38
2023-04-25T06:36:42.483Z,99726.63
2023-04-25T06:37:44.108Z,99729.69
2023-04-25T06:39:07.028Z,99731.44
2023-04-25T06:40:29.471Z,99730.97
2023-04-25T06:41:52.264Z,99726.59
2023-04-25T06:42:54.005Z,99729.72
2023-04-25T06:44:16.693Z,99732.34
2023-04-25T06:45:38.161Z,99727.09
2023-04-25T06:47:00.838Z,99736.06
2023-04-25T06:48:23.496Z,99736.09
2023-04-25T06:49:47.551Z,99741.78
2023-04-25T06:51:10.001Z,99745.91
2023-04-25T06:52:32.438Z,99738.47
2023-04-25T06:53:55.477Z,99742.03
2023-04-25T06:55:18.226Z,99733.38
2023-04-25T06:56:40.742Z,99742.47
2023-04-25T06:58:03.178Z,99742.97
2023-04-25T06:59:25.699Z,99730.03
2023-04-25T07:00:48.238Z,99735.72
2023-04-25T07:02:10.783Z,99739.00
2023-04-25T07:03:33.427Z,99737.72
2023-04-25T07:05:00.714Z,99739.22
2023-04-25T07:06:23.288Z,99742.41
2023-04-25T07:07:45.810Z,99736.69
2023-04-25T07:09:08.408Z,99746.41
2023-04-25T07:10:31.164Z,99747.91
2023-04-25T07:11:57.491Z,99754.44
2023-04-25T07:13:19.994Z,99759.50
2023-04-25T07:14:42.442Z,99753.53
2023-04-25T07:16:05.990Z,99750.53
2023-04-25T07:17:28.537Z,99755.47
2023-04-25T07:18:51.240Z,99755.25
2023-04-25T07:20:15.277Z,99751.91
2023-04-25T07:21:37.797Z,99761.81
2023-04-25T07:23:00.457Z,99767.03
2023-04-25T07:24:23.229Z,99758.09
2023-04-25T07:25:45.668Z,99759.13
2023-04-25T07:27:08.153Z,99762.50
2023-04-25T07:28:30.613Z,99761.94
2023-04-25T07:29:53.150Z,99766.31
2023-04-25T07:31:18.398Z,99765.38
2023-04-25T07:32:41.171Z,99767.22
2023-04-25T07:34:06.790Z,99768.63
2023-04-25T07:35:30.680Z,99762.63
2023-04-25T07:36:52.346Z,99768.84
2023-04-25T07:38:14.885Z,99767.66
2023-04-25T07:39:38.103Z,99768.19
2023-04-25T07:41:00.761Z,99772.72
2023-04-25T07:42:23.221Z,99771.44
2023-04-25T07:43:46.502Z,99770.69
2023-04-25T07:45:10.487Z,99772.91
2023-04-25T07:46:33.009Z,99780.19
2023-04-25T07:47:55.559Z,99777.09
2023-04-25T07:49:18.042Z,99774.72
2023-04-25T07:50:41.800Z,99765.97
2023-04-25T07:52:05.324Z,99776.97
2023-04-25T07:53:27.831Z,99784.69
2023-04-25T07:54:50.352Z,99780.22
2023-04-25T07:56:12.903Z,99776.00
2023-04-25T07:57:35.535Z,99782.31
2023-04-25T07:58:58.175Z,99780.47
2023-04-25T08:00:21.068Z,99780.81
2023-04-25T08:01:43.544Z,99779.97
2023-04-25T08:03:07.657Z,99787.22
2023-04-25T08:04:30.674Z,99787.47
2023-04-25T08:05:32.726Z,99786.84
2023-04-25T08:06:56.647Z,99796.31
2023-04-25T08:08:19.098Z,99789.97
2023-04-25T08:09:41.812Z,99788.22
2023-04-25T08:11:04.322Z,99793.16
2023-04-25T08:12:26.985Z,99795.19
2023-04-25T08:13:49.572Z,99782.53
2023-04-25T08:15:14.748Z,99795.13
2023-04-25T08:16:37.280Z,99802.00
2023-04-25T08:18:00.559Z,99803.53
2023-04-25T08:19:23.089Z,99803.25
2023-04-25T08:20:46.051Z,99808.81
2023-04-25T08:22:09.894Z,99818.25
2023-04-25T08:23:32.548Z,99815.50
2023-04-25T08:24:55.028Z,99817.53
2023-04-25T08:26:17.447Z,99815.56
2023-04-25T08:27:39.909Z,99829.38
2023-04-25T08:29:02.385Z,99829.72
2023-04-25T08:30:25.059Z,99821.41
2023-04-25T08:31:47.909Z,99831.28
2023-04-25T08:33:11.269Z,99829.88
2023-04-25T08:34:37.826Z,99831.03
2023-04-25T08:36:00.408Z,99834.91
2023-04-25T08:37:24.256Z,99834.22
2023-04-25T08:38:46.718Z,99828.59
2023-04-25T08:40:14.140Z,99839.13
2023-04-25T08:41:38.857Z,99845.94
2023-04-25T08:43:04.249Z,99845.38
2023-04-25T08:44:26.899Z,99841.81
2023-04-25T08:45:49.396Z,99852.19
2023-04-25T08:47:11.963Z,99849.22
2023-04-25T08:48:35.781Z,99857.16
2023-04-25T08:49:58.311Z,99853.38
2023-04-25T08:51:25.821Z,99859.72
2023-04-25T08:52:53.782Z,99855.41
2023-04-25T08:54:30.760Z,99863.34
2023-04-25T08:56:02.755Z,99861.69
2023-04-25T08:57:26.109Z,99846.94
2023-04-25T08:58:50.024Z,99862.81
2023-04-25T09:00:15.093Z,99859.59
2023-04-25T09:01:38.062Z,99867.72
2023-04-25T09:03:01.437Z,99876.28
2023-04-25T09:04:24.157Z,99867.38
2023-04-25T09:05:47.225Z,99870.28
2023-04-25T09:07:09.737Z,99868.31
2023-04-25T09:08:33.863Z,99873.25
2023-04-25T09:09:56.593Z,99872.66
2023-04-25T09:11:20.532Z,99873.19
2023-04-25T09:12:44.453Z,99868.78
2023-04-25T09:14:16.964Z,99878.28
2023-04-25T09:15:50.464Z,99880.03
2023-04-25T09:17:13.205Z,99876.41
2023-04-25T09:18:37.238Z,99888.75
2023-04-25T09:20:09.293Z,99880.78
2023-04-25T09:21:32.078Z,99884.44
2023-04-25T09:23:04.114Z,99883.34
2023-04-25T09:24:36.660Z,99884.81
2023-04-25T09:25:59.186Z,99886.38
2023-04-25T09:27:24.018Z,99887.94
2023-04-25T09:28:48.917Z,99895.47
2023-04-25T09:30:12.744Z,99897.63
2023-04-25T09:31:35.621Z,99895.88
2023-04-25T09:32:58.168Z,99897.84
2023-04-25T09:34:20.831Z,99899.78
2023-04-25T09:35:45.028Z,99910.97
2023-04-25T09:37:07.863Z,99906.91
2023-04-25T09:38:32.597Z,99903.06
2023-04-25T09:39:59.819Z,99901.84
2023-04-25T09:41:25.572Z,99904.94
2023-04-25T09:42:48.215Z,99907.63
2023-04-25T09:44:14.677Z,99902.28
2023-04-25T09:45:46.508Z,99905.34
2023-04-25T09:47:12.187Z,99909.91
2023-04-25T09:48:34.676Z,99907.84
2023-04-25T09:49:57.608Z,99904.53
2023-04-25T09:51:20.390Z,99911.47
2023-04-25T09:52:43.291Z,99905.41
2023-04-25T09:54:06.295Z,99911.72
2023-04-25T09:55:30.284Z,99912.66
2023-04-25T09:56:54.457Z,99899.66
2023-04-25T09:58:17.377Z,99907.47
2023-04-25T09:59:41.856Z,99906.66
2023-04-25T10:01:07.560Z,99908.50
2023-04-25T10:02:30.288Z,99908.78
2023-04-25T10:03:56.674Z,99921.91
2023-04-25T10:05:19.874Z,99921.09
2023-04-25T10:06:44.999Z,99906.13
2023-04-25T10:08:09.652Z,99914.97
2023-04-25T10:09:34.993Z,99920.13
2023-04-25T10:11:00.609Z,99922.06
2023-04-25T10:12:23.933Z,99919.00
2023-04-25T10:13:48.941Z,99919.81
2023-04-25T10:15:13.785Z,99919.34
2023-04-25T10:16:37.707Z,99924.69
2023-04-25T10:18:00.803Z,99925.72
2023-04-25T10:19:23.956Z,99924.97
2023-04-25T10:20:46.738Z,99928.44
2023-04-25T10:22:14.022Z,99923.41
2023-04-25T10:23:37.948Z,99922.81
2023-04-25T10:25:00.802Z,99932.69
2023-04-25T10:26:25.577Z,99929.22
2023-04-25T10:27:48.362Z,99927.59
2023-04-25T10:29:11.600Z,99931.06
2023-04-25T10:30:34.301Z,99928.22
2023-04-25T10:31:57.741Z,99941.94
2023-04-25T10:33:20.751Z,99942.00
2023-04-25T10:34:47.987Z,99943.06
2023-04-25T10:36:12.196Z,99942.63
2023-04-25T10:37:34.942Z,99949.00
2023-04-25T10:38:59.104Z,99948.44
2023-04-25T10:40:24.034Z,99949.75
2023-04-25T10:41:55.827Z,99950.63
2023-04-25T10:43:36.881Z,99949.22
2023-04-25T10:45:08.028Z,99947.03
2023-04-25T10:46:31.776Z,99947.66
2023-04-25T10:47:54.443Z,99946.47
2023-04-25T10:49:34.299Z,99943.06
2023-04-25T10:51:10.211Z,99946.34
2023-04-25T10:52:35.004Z,99943.50
2023-04-25T10:54:02.326Z,99941.75
2023-04-25T10:55:25.192Z,99943.94
2023-04-25T10:56:50.441Z,99948.88
2023-04-25T10:58:14.376Z,99941.09
2023-04-25T10:59:37.409Z,99945.53
2023-04-25T11:01:00.031Z,99945.47
2023-04-25T11:02:22.719Z,99947.31
2023-04-25T11:03:46.322Z,99942.75
2023-04-25T11:05:09.842Z,99942.28
2023-04-25T11:06:45.871Z,99946.56
2023-04-25T11:08:12.803Z,99940.91
2023-04-25T11:09:36.058Z,99948.50
2023-04-25T11:10:58.935Z,99936.75
2023-04-25T11:12:21.775Z,99944.75
2023-04-25T11:13:46.196Z,99940.03
2023-04-25T11:15:09.911Z,99935.78
2023-04-25T11:16:33.350Z,99940.13
2023-04-25T11:17:56.991Z,99940.97
2023-04-25T11:19:21.406Z,99944.72
2023-04-25T11:20:45.605Z,99946.97
2023-04-25T11:22:08.859Z,99949.41
2023-04-25T11:23:32.221Z,99943.91
2023-04-25T11:24:54.871Z,99950.06
2023-04-25T11:26:17.452Z,99949.69
2023-04-25T11:27:42.040Z,99949.63
2023-04-25T11:29:05.900Z,99948.66
2023-04-25T11:30:29.744Z,99949.94
2023-04-25T11:31:52.918Z,99949.19
2023-04-25T11:33:15.424Z,99956.03
2023-04-25T11:34:37.944Z,99956.81
2023-04-25T11:36:00.822Z,99954.47
2023-04-25T11:37:23.538Z,99953.97
2023-04-25T11:38:46.108Z,99957.34
2023-04-25T11:40:10.595Z,99947.50
2023-04-25T11:41:33.358Z,99945.78
2023-04-25T11:42:56.002Z,99946.00
2023-04-25T11:44:20.532Z,99953.25
2023-04-25T11:45:43.325Z,99945.00
2023-04-25T11:47:05.908Z,99959.38
2023-04-25T11:48:28.428Z,99950.53
2023-04-25T11:49:50.961Z,99952.50
2023-04-25T11:51:14.582Z,99955.31
2023-04-25T11:52:38.633Z,99957.00
2023-04-25T11:54:01.340Z,99961.06
2023-04-25T11:55:23.843Z,99953.66
2023-04-25T11:56:47.488Z,99952.41
2023-04-25T11:58:10.293Z,99956.59
2023-04-25T11:59:34.195Z,99960.75
2023-04-25T12:00:59.739Z,99954.03
2023-04-25T12:02:28.657Z,99963.25
2023-04-25T12:03:51.993Z,99959.66
2023-04-25T12:05:31.066Z,99960.81
2023-04-25T12:06:57.143Z,99952.25
2023-04-25T12:08:19.777Z,99953.44
2023-04-25T12:09:42.603Z,99959.63
2023-04-25T12:11:06.022Z,99958.22
2023-04-25T12:12:34.021Z,99946.56
2023-04-25T12:13:57.170Z,99949.31
2023-04-25T12:15:26.278Z,99944.94
2023-04-25T12:16:50.392Z,99945.63
2023-04-25T12:18:12.934Z,99943.44
2023-04-25T12:19:37.667Z,99944.34
2023-04-25T12:21:01.065Z,99944.94
2023-04-25T12:22:25.711Z,99953.78
2023-04-25T12:23:48.246Z,99949.25
2023-04-25T12:25:11.659Z,99948.94
2023-04-25T12:26:48.930Z,99950.97
2023-04-25T12:28:13.314Z,99963.47
2023-04-25T12:29:48.628Z,99961.28
2023-04-25T12:31:16.112Z,99981.81
2023-04-25T12:32:40.200Z,99975.13
2023-04-25T12:34:03.367Z,99979.66
2023-04-25T12:35:26.113Z,99977.41
2023-04-25T12:36:49.043Z,99974.38
2023-04-25T12:38:11.718Z,99982.38
2023-04-25T12:39:35.299Z,99982.81
2023-04-25T12:40:59.864Z,99979.91
2023-04-25T12:42:22.514Z,99984.63
2023-04-25T12:43:45.198Z,99982.06
2023-04-25T12:45:08.772Z,99984.69
2023-04-25T12:46:32.794Z,99986.72
2023-04-25T12:47:55.320Z,99991.47
2023-04-25T12:49:19.418Z,99993.06
2023-04-25T12:50:43.472Z,99990.16
2023-04-25T12:52:06.085Z,99991.81
2023-04-25T12:53:28.665Z,99998.00
2023-04-25T12:54:51.108Z,100004.00
2023-04-25T12:56:14.026Z,100000.28
2023-04-25T12:57:36.619Z,99999.53
2023-04-25T12:58:59.158Z,100001.03
2023-04-25T13:00:22.307Z,99999.91
2023-04-25T13:01:46.580Z,100005.00
2023-04-25T13:03:10.416Z,100001.84
2023-04-25T13:04:33.268Z,100003.97
2023-04-25T13:05:56.358Z,100006.78
2023-04-25T13:07:19.129Z,100005.16
2023-04-25T13:08:42.453Z,100004.97
2023-04-25T13:10:05.524Z,100002.44
2023-04-25T13:11:28.191Z,99993.56
2023-04-25T13:12:51.530Z,100001.44
2023-04-25T13:14:14.097Z,100006.09
2023-04-25T13:15:36.653Z,100000.25
2023-04-25T13:17:01.074Z,99995.28
2023-04-25T13:18:27.258Z,100001.44
2023-04-25T13:19:49.761Z,100003.06
2023-04-25T13:21:12.878Z,100001.56
2023-04-25T13:22:37.521Z,100003.56
2023-04-25T13:24:00.037Z,100005.44
2023-04-25T13:25:23.316Z,99999.34
2023-04-25T13:26:46.126Z,100005.34
2023-04-25T13:28:08.765Z,100004.81
2023-04-25T13:29:31.287Z,100009.47
2023-04-25T13:30:53.873Z,100008.88
2023-04-25T13:32:17.849Z,100009.88
2023-04-25T13:33:40.749Z,100013.22
2023-04-25T13:35:07.138Z,100005.44
2023-04-25T13:36:31.511Z,100015.63
2023-04-25T13:37:54.237Z,100012.41
2023-04-25T13:39:16.637Z,100012.94
2023-04-25T13:40:39.106Z,100011.72
2023-04-25T13:42:02.862Z,100006.84
2023-04-25T13:43:25.344Z,100001.59
2023-04-25T13:44:47.818Z,100007.47
2023-04-25T13:46:24.867Z,100005.97
2023-04-25T13:47:54.720Z,100009.31
2023-04-25T13:49:17.450Z,100014.28
2023-04-25T13:50:40.625Z,100014.44
2023-04-25T13:52:03.316Z,100009.78
2023-04-25T13:53:26.077Z,100015.56
2023-04-25T13:54:48.988Z,100018.69
2023-04-25T13:56:12.653Z,100018.78
2023-04-25T13:57:35.310Z,100028.41
2023-04-25T13:58:58.319Z,100017.44
2023-04-25T14:00:21.321Z,100019.00
2023-04-25T14:01:43.892Z,100020.28
2023-04-25T14:03:08.795Z,100012.44
2023-04-25T14:04:31.746Z,100021.88
2023-04-25T14:05:54.304Z,100022.03
2023-04-25T14:07:18.010Z,100026.47
2023-04-25T14:08:41.132Z,100034.66
2023-04-25T14:10:05.322Z,100029.03